Time;durP1;ratioP1;P1;durP2;ratioP2;P2;SDS_P1;SDS_P2;PMS_P1;PMS_P2;Temp;Humidity;BMP_temperature;BMP_pressure;BME280_temperature;BME280_humidity;BME280_pressure;Samples;Min_cycle;Max_cycle;Signal;HPM_P1;HPM_P2
2021/03/21 00:00:31;;;;;;;11.57;6.10;;;1.90;66.40;;;;;;2016665;29;20143;-76
2021/03/21 00:01:38;;;;;;;10.52;6.53;;;1.90;66.40;;;;;;2019902;28;20033;-76
2021/03/21 00:02:38;;;;;;;11.07;6.68;;;1.90;67.30;;;;;;2010769;29;20030;-76
2021/03/21 00:03:42;;;;;;;13.00;6.10;;;1.90;67.80;;;;;;2011869;29;20041;-76
2021/03/21 00:04:45;;;;;;;11.27;6.40;;;2.00;67.40;;;;;;2026787;28;20079;-76
2021/03/21 00:05:47;;;;;;;10.18;6.38;;;2.00;67.30;;;;;;2027282;29;20036;-76
2021/03/21 00:06:48;;;;;;;10.30;6.20;;;2.00;67.20;;;;;;2026784;29;20083;-75
2021/03/21 00:08:19;;;;;;;9.63;6.00;;;2.00;67.80;;;;;;2017016;29;20488;-75
2021/03/21 00:09:20;;;;;;;;;;;2.00;68.20;;;;;;2019257;29;20132;-75
2021/03/21 00:10:24;;;;;;;11.43;6.57;;;2.00;68.90;;;;;;2016658;29;19916;-75
2021/03/21 00:11:29;;;;;;;11.20;6.35;;;2.00;68.70;;;;;;2023345;29;20036;-75
2021/03/21 00:12:30;;;;;;;11.13;6.43;;;2.00;69.00;;;;;;2015885;29;20025;-76
2021/03/21 00:13:32;;;;;;;13.13;6.65;;;2.00;69.10;;;;;;2015716;29;20029;-75
2021/03/21 00:14:33;;;;;;;9.88;6.32;;;2.00;69.30;;;;;;2008235;29;20036;-76
2021/03/21 00:15:34;;;;;;;10.05;6.30;;;2.00;69.20;;;;;;2008054;28;20120;-75
2021/03/21 00:16:36;;;;;;;9.73;6.10;;;2.00;69.20;;;;;;2015567;28;20128;-75
2021/03/21 00:17:37;;;;;;;9.88;6.22;;;2.00;69.70;;;;;;2023211;29;20116;-75
2021/03/21 00:18:39;;;;;;;10.00;5.90;;;2.00;69.10;;;;;;2014616;29;20108;-75
2021/03/21 00:19:40;;;;;;;11.05;6.38;;;2.00;69.20;;;;;;2015618;29;20472;-75
2021/03/21 00:20:42;;;;;;;10.57;6.00;;;2.00;69.70;;;;;;2047970;28;20023;-75
2021/03/21 00:21:43;;;;;;;11.80;6.30;;;2.00;69.60;;;;;;2047977;28;20039;-76
2021/03/21 00:22:44;;;;;;;8.07;5.85;;;2.00;69.30;;;;;;2016330;29;20033;-76
2021/03/21 00:23:45;;;;;;;10.18;6.15;;;2.00;69.70;;;;;;2016356;29;20512;-75
2021/03/21 00:24:45;;;;;;;9.80;6.13;;;2.00;70.20;;;;;;2017568;29;20029;-78
2021/03/21 00:25:46;;;;;;;10.23;6.03;;;2.00;70.00;;;;;;2018874;29;20769;-76
2021/03/21 00:26:46;;;;;;;8.27;6.03;;;2.00;70.10;;;;;;2020375;29;20037;-76
2021/03/21 00:27:48;;;;;;;11.00;6.35;;;2.10;70.40;;;;;;2026224;29;20060;-76
2021/03/21 00:28:49;;;;;;;8.88;6.00;;;2.10;70.90;;;;;;2026586;28;20036;-76
2021/03/21 00:29:49;;;;;;;8.82;5.70;;;2.00;71.00;;;;;;2017235;28;20041;-76
2021/03/21 00:30:51;;;;;;;9.88;6.22;;;2.00;71.20;;;;;;2015870;29;20416;-76
2021/03/21 00:31:52;;;;;;;10.10;5.82;;;2.00;70.90;;;;;;2015980;28;20025;-76
2021/03/21 00:32:52;;;;;;;11.23;6.32;;;2.10;71.10;;;;;;2016084;29;20033;-76
2021/03/21 00:33:53;;;;;;;11.02;6.00;;;2.10;71.30;;;;;;2023776;28;20036;-76
2021/03/21 00:34:53;;;;;;;8.80;5.50;;;2.00;71.40;;;;;;2015424;29;20033;-75
2021/03/21 00:35:55;;;;;;;10.73;6.25;;;2.00;71.80;;;;;;2016411;29;20033;-75
2021/03/21 00:36:56;;;;;;;9.63;6.18;;;2.10;71.50;;;;;;2015855;29;20048;-76
2021/03/21 00:37:58;;;;;;;10.38;6.20;;;2.10;71.40;;;;;;2015803;29;20409;-76
2021/03/21 00:38:59;;;;;;;8.13;5.93;;;2.00;71.40;;;;;;2022612;28;20037;-76
2021/03/21 00:39:59;;;;;;;8.35;6.30;;;2.10;71.40;;;;;;2023559;29;20164;-76
2021/03/21 00:41:01;;;;;;;9.07;5.97;;;2.10;71.50;;;;;;2023587;29;20068;-75
2021/03/21 00:42:02;;;;;;;9.35;5.60;;;2.10;71.60;;;;;;2016323;29;20033;-76
2021/03/21 00:43:02;;;;;;;8.77;6.00;;;2.10;72.20;;;;;;2015854;29;20553;-77
2021/03/21 00:44:03;;;;;;;9.70;6.20;;;2.10;72.00;;;;;;2048716;28;20102;-76
2021/03/21 00:45:06;;;;;;;10.48;6.40;;;2.10;71.30;;;;;;2048167;29;20031;-77
2021/03/21 00:46:07;;;;;;;10.40;6.38;;;2.10;71.10;;;;;;2015922;28;20029;-76
2021/03/21 00:47:08;;;;;;;10.20;6.07;;;2.10;71.00;;;;;;2016139;29;20029;-76
2021/03/21 00:48:23;;;;;;;9.55;6.15;;;2.20;71.10;;;;;;2016353;29;20461;-77
2021/03/21 00:49:23;;;;;;;8.93;5.82;;;2.20;71.20;;;;;;2056800;28;20038;-76
2021/03/21 00:50:31;;;;;;;9.65;6.00;;;2.20;71.10;;;;;;2050129;29;20051;-77
2021/03/21 00:51:31;;;;;;;9.00;5.93;;;2.20;71.10;;;;;;2018910;29;20032;-77
2021/03/21 00:52:32;;;;;;;11.25;5.95;;;2.20;70.80;;;;;;2024964;29;20765;-77
2021/03/21 00:53:34;;;;;;;10.02;6.15;;;2.20;70.70;;;;;;2016744;29;20047;-77
2021/03/21 00:54:34;;;;;;;9.30;6.20;;;2.20;70.90;;;;;;2016426;29;20484;-77
2021/03/21 00:55:35;;;;;;;9.02;6.00;;;2.20;70.50;;;;;;2016102;29;20029;-76
2021/03/21 00:56:38;;;;;;;9.02;5.70;;;2.20;70.60;;;;;;2016148;29;20028;-76
2021/03/21 00:57:39;;;;;;;8.60;6.03;;;2.20;70.90;;;;;;2016174;29;20036;-75
2021/03/21 00:58:40;;;;;;;9.02;5.95;;;2.20;71.30;;;;;;2054771;28;20509;-76
2021/03/21 00:59:41;;;;;;;9.93;6.00;;;2.20;71.20;;;;;;2047805;28;20123;-77
2021/03/21 01:00:45;;;;;;;10.13;6.35;;;2.20;71.10;;;;;;2016979;29;20029;-78
2021/03/21 01:01:46;;;;;;;11.38;6.30;;;2.20;70.90;;;;;;2018530;29;20067;-80
2021/03/21 01:02:46;;;;;;;9.07;5.85;;;2.20;71.00;;;;;;2024908;29;20028;-78
2021/03/21 01:03:47;;;;;;;10.65;6.25;;;2.20;72.00;;;;;;2018892;29;20033;-78
2021/03/21 01:04:49;;;;;;;8.55;6.00;;;2.20;72.10;;;;;;2009368;29;20073;-78
2021/03/21 01:05:55;;;;;;;7.97;5.65;;;2.20;71.90;;;;;;2009799;29;20547;-78
2021/03/21 01:06:56;;;;;;;9.48;6.18;;;2.30;71.50;;;;;;2017385;28;20041;-77
2021/03/21 01:07:57;;;;;;;9.82;5.97;;;2.30;71.70;;;;;;2024193;29;20104;-77
2021/03/21 01:09:01;;;;;;;8.77;5.88;;;2.30;72.10;;;;;;2015582;28;20030;-79
2021/03/21 01:10:05;;;;;;;7.78;5.93;;;2.30;72.60;;;;;;2016566;29;20029;-77
2021/03/21 01:11:12;;;;;;;8.65;5.68;;;2.30;72.50;;;;;;2016649;29;20029;-79
2021/03/21 01:12:13;;;;;;;9.50;6.20;;;2.30;72.20;;;;;;2016791;29;20088;-78
2021/03/21 01:13:14;;;;;;;8.20;5.95;;;2.30;72.20;;;;;;2057807;28;20552;-77
2021/03/21 01:14:15;;;;;;;9.88;6.20;;;2.30;72.80;;;;;;2050561;29;20605;-80
2021/03/21 01:15:17;;;;;;;10.13;5.90;;;2.30;72.60;;;;;;2018509;29;20048;-80
2021/03/21 01:16:21;;;;;;;9.13;5.85;;;2.30;72.80;;;;;;2018294;29;20493;-78
2021/03/21 01:17:22;;;;;;;9.15;6.00;;;2.30;72.70;;;;;;2025570;29;20036;-79
2021/03/21 01:18:26;;;;;;;11.60;5.97;;;2.40;72.60;;;;;;2025770;29;20603;-79
2021/03/21 01:19:26;;;;;;;9.57;5.88;;;2.40;72.50;;;;;;2018963;29;20037;-79
2021/03/21 01:20:29;;;;;;;8.40;5.68;;;2.40;72.60;;;;;;2059020;28;20058;-79
2021/03/21 01:21:32;;;;;;;8.93;5.53;;;2.40;72.00;;;;;;2057939;28;20035;-79
2021/03/21 01:22:33;;;;;;;7.63;5.53;;;2.30;71.80;;;;;;2050161;29;20086;-79
2021/03/21 01:23:33;;;;;;;9.77;5.80;;;2.30;71.90;;;;;;2051179;28;20035;-79
2021/03/21 01:24:34;;;;;;;10.18;5.82;;;2.30;72.20;;;;;;2018378;29;20036;-79
2021/03/21 01:25:34;;;;;;;10.23;6.28;;;2.40;72.40;;;;;;2025982;29;20032;-76
2021/03/21 01:26:35;;;;;;;9.32;5.70;;;2.40;71.60;;;;;;2017105;29;20030;-77
2021/03/21 01:27:36;;;;;;;8.05;5.45;;;2.40;71.80;;;;;;2016481;29;20057;-77
2021/03/21 01:28:37;;;;;;;9.90;5.50;;;2.40;72.30;;;;;;2023413;29;20479;-77
2021/03/21 01:29:38;;;;;;;8.30;5.18;;;2.40;71.40;;;;;;2016895;29;20026;-78
2021/03/21 01:30:38;;;;;;;8.00;5.30;;;2.40;71.70;;;;;;2017320;29;20148;-77
2021/03/21 01:31:39;;;;;;;9.10;5.72;;;2.40;72.10;;;;;;2016879;29;20087;-78
2021/03/21 01:32:40;;;;;;;10.75;5.97;;;2.40;70.40;;;;;;2008771;29;20517;-77
2021/03/21 01:33:41;;;;;;;9.48;5.50;;;2.40;70.60;;;;;;2009524;29;20121;-77
2021/03/21 01:34:42;;;;;;;9.30;5.97;;;2.40;69.90;;;;;;2016849;29;20029;-77
2021/03/21 01:35:43;;;;;;;9.85;5.70;;;2.40;69.80;;;;;;2019066;29;20065;-76
2021/03/21 01:36:43;;;;;;;9.73;5.50;;;2.50;69.90;;;;;;2018714;29;20029;-79
2021/03/21 01:37:44;;;;;;;10.77;6.65;;;2.40;69.60;;;;;;2058122;28;20031;-79
2021/03/21 01:38:45;;;;;;;9.95;5.63;;;2.40;69.50;;;;;;2041521;29;20418;-79
2021/03/21 01:39:46;;;;;;;8.38;5.80;;;2.40;70.40;;;;;;2009991;29;20056;-76
2021/03/21 01:40:49;;;;;;;9.15;5.97;;;2.50;70.10;;;;;;2023892;29;20049;-79
2021/03/21 01:42:06;;;;;;;7.25;5.10;;;2.40;70.20;;;;;;2023504;28;20025;-77
2021/03/21 01:43:12;;;;;;;9.35;5.35;;;2.40;70.40;;;;;;2016591;29;20056;-76
2021/03/21 01:44:15;;;;;;;8.95;6.00;;;2.40;69.70;;;;;;2016972;29;20040;-77
2021/03/21 01:45:36;;;;;;;8.43;5.60;;;2.40;69.70;;;;;;2016811;29;20021;-78
2021/03/21 01:46:36;;;;;;;9.98;6.13;;;2.50;70.80;;;;;;2017192;29;20040;-78
2021/03/21 01:47:38;;;;;;;8.40;5.50;;;2.50;71.50;;;;;;2025140;29;20029;-77
2021/03/21 01:48:50;;;;;;;8.77;5.85;;;2.50;71.10;;;;;;2024975;29;20035;-78
2021/03/21 01:49:51;;;;;;;9.18;5.30;;;2.50;71.80;;;;;;2019307;29;20040;-78
2021/03/21 01:51:24;;;;;;;10.13;6.00;;;2.50;71.70;;;;;;2019008;29;20084;-78
2021/03/21 01:52:41;;;;;;;9.45;5.93;;;2.50;71.50;;;;;;2018479;29;20033;-77
2021/03/21 01:53:44;;;;;;;8.60;5.63;;;2.50;71.10;;;;;;2059441;28;20422;-78
2021/03/21 01:54:45;;;;;;;10.75;6.20;;;2.50;71.70;;;;;;2049936;29;20590;-78
2021/03/21 01:55:46;;;;;;;11.70;6.03;;;2.50;72.60;;;;;;2019006;29;20029;-78
2021/03/21 01:56:47;;;;;;;8.35;6.10;;;2.50;72.70;;;;;;2018803;29;20029;-78
2021/03/21 01:57:49;;;;;;;9.15;5.72;;;2.50;72.20;;;;;;2018715;29;20072;-78
2021/03/21 01:59:00;;;;;;;8.50;6.13;;;2.50;72.00;;;;;;2017679;29;20399;-77
2021/03/21 02:00:01;;;;;;;10.73;6.35;;;2.40;73.00;;;;;;2025126;29;20032;-77
2021/03/21 02:01:11;;;;;;;9.43;6.18;;;2.40;72.50;;;;;;2017937;29;20055;-78
2021/03/21 02:02:12;;;;;;;12.02;6.75;;;2.40;73.00;;;;;;2011219;29;20101;-77
2021/03/21 02:03:13;;;;;;;11.98;6.95;;;2.40;72.30;;;;;;2010279;29;20041;-78
2021/03/21 02:04:14;;;;;;;9.00;6.22;;;2.40;72.00;;;;;;2017723;29;20709;-79
2021/03/21 02:05:15;;;;;;;9.45;6.20;;;2.40;71.90;;;;;;2019261;29;20022;-78
2021/03/21 02:06:32;;;;;;;9.15;6.25;;;2.40;72.00;;;;;;2017997;29;20107;-78
2021/03/21 02:07:38;;;;;;;11.18;6.68;;;2.40;72.30;;;;;;2026042;29;20021;-78
2021/03/21 02:08:43;;;;;;;10.48;6.40;;;2.40;72.50;;;;;;2023953;29;20508;-78
2021/03/21 02:09:56;;;;;;;10.25;6.72;;;2.40;73.10;;;;;;2018278;29;20032;-77
2021/03/21 02:11:14;;;;;;;10.85;6.47;;;2.40;72.90;;;;;;2026303;29;20044;-77
2021/03/21 02:12:43;;;;;;;11.43;6.47;;;2.40;73.30;;;;;;2018061;29;20029;-77
2021/03/21 02:14:06;;;;;;;9.57;6.40;;;2.40;73.30;;;;;;2018568;29;20030;-77
2021/03/21 02:15:43;;;;;;;11.30;6.72;;;2.40;73.80;;;;;;2018036;29;20033;-77
2021/03/21 02:16:57;;;;;;;11.65;6.63;;;2.40;74.80;;;;;;2017871;29;20021;-77
2021/03/21 02:18:28;;;;;;;9.45;6.55;;;2.40;74.90;;;;;;2024862;29;20036;-77
2021/03/21 02:19:39;;;;;;;10.98;6.47;;;2.40;74.60;;;;;;2021404;29;20033;-77
2021/03/21 02:21:12;;;;;;;9.25;6.32;;;2.40;74.60;;;;;;2025074;29;20518;-77
2021/03/21 02:22:23;;;;;;;10.20;6.35;;;2.40;74.50;;;;;;2021116;29;20029;-78
2021/03/21 02:23:59;;;;;;;10.07;6.57;;;2.40;74.20;;;;;;2017780;29;20036;-78
2021/03/21 02:25:08;;;;;;;12.25;6.65;;;2.40;74.00;;;;;;2017873;29;20030;-78
2021/03/21 02:26:39;;;;;;;9.18;6.15;;;2.40;74.70;;;;;;2017864;29;20033;-78
2021/03/21 02:28:16;;;;;;;10.15;7.03;;;2.40;75.20;;;;;;2018215;28;20034;-78
2021/03/21 02:29:20;;;;;;;12.35;7.00;;;2.40;74.50;;;;;;2018153;29;20029;-78
2021/03/21 02:30:28;;;;;;;11.55;7.45;;;2.40;75.50;;;;;;2018511;29;20123;-78
2021/03/21 02:31:44;;;;;;;12.18;7.43;;;2.40;76.30;;;;;;2019533;29;20119;-78
2021/03/21 02:32:55;;;;;;;10.60;7.20;;;2.40;76.50;;;;;;2017778;29;20036;-78
2021/03/21 02:34:29;;;;;;;13.70;7.60;;;2.40;76.90;;;;;;2018716;29;20037;-77
2021/03/21 02:35:45;;;;;;;10.45;7.20;;;2.40;77.60;;;;;;2018446;29;20462;-78
2021/03/21 02:36:51;;;;;;;12.23;7.60;;;2.40;77.40;;;;;;2059178;28;20058;-77
2021/03/21 02:38:24;;;;;;;10.15;7.05;;;2.40;78.00;;;;;;2048726;29;20023;-78
2021/03/21 02:39:45;;;;;;;13.20;7.30;;;2.40;78.80;;;;;;2019284;29;20102;-78
2021/03/21 02:40:55;;;;;;;10.82;7.05;;;2.40;78.80;;;;;;2019541;29;20025;-78
2021/03/21 02:42:01;;;;;;;12.13;7.50;;;2.40;78.70;;;;;;2018925;29;20033;-78
2021/03/21 02:43:23;;;;;;;12.45;8.05;;;2.40;78.50;;;;;;2020261;29;20102;-78
2021/03/21 02:44:29;;;;;;;11.55;7.60;;;2.40;77.90;;;;;;2018618;29;20488;-78
2021/03/21 02:45:34;;;;;;;11.25;7.72;;;2.40;77.60;;;;;;2051953;28;20030;-78
2021/03/21 02:46:39;;;;;;;11.15;8.15;;;2.40;77.90;;;;;;2048491;29;20023;-79
2021/03/21 02:47:42;;;;;;;10.90;7.53;;;2.40;77.90;;;;;;2011346;28;20034;-79
2021/03/21 02:48:48;;;;;;;14.90;7.93;;;2.40;78.10;;;;;;2010526;28;20029;-78
2021/03/21 02:49:51;;;;;;;13.98;8.40;;;2.40;78.50;;;;;;2011367;29;20652;-78
2021/03/21 02:51:10;;;;;;;13.07;8.18;;;2.40;78.60;;;;;;2009794;29;20045;-78
2021/03/21 02:52:23;;;;;;;10.27;7.38;;;2.40;78.60;;;;;;2013372;29;20137;-77
2021/03/21 02:53:33;;;;;;;10.48;7.68;;;2.30;78.60;;;;;;2017835;29;20516;-78
2021/03/21 02:54:49;;;;;;;11.18;7.15;;;2.40;79.10;;;;;;2018923;29;20440;-78
2021/03/21 02:55:54;;;;;;;11.77;7.63;;;2.40;79.00;;;;;;2018964;29;20033;-78
2021/03/21 02:57:02;;;;;;;14.95;8.02;;;2.40;79.20;;;;;;2026128;29;20443;-78
2021/03/21 02:58:08;;;;;;;13.23;8.32;;;2.40;79.60;;;;;;2025287;29;20103;-78
2021/03/21 02:59:32;;;;;;;13.02;8.05;;;2.40;79.40;;;;;;2018576;29;20099;-78
2021/03/21 03:00:38;;;;;;;13.50;8.07;;;2.40;79.20;;;;;;2018450;29;20566;-78
2021/03/21 03:01:46;;;;;;;12.68;8.73;;;2.40;79.60;;;;;;2020142;29;20037;-79
2021/03/21 03:02:51;;;;;;;12.32;8.00;;;2.40;79.60;;;;;;2019122;29;20820;-78
2021/03/21 03:03:56;;;;;;;11.80;8.02;;;2.40;79.80;;;;;;2018663;29;20025;-78
2021/03/21 03:05:25;;;;;;;13.57;8.23;;;2.40;80.00;;;;;;2018739;29;20064;-78
2021/03/21 03:06:31;;;;;;;12.25;8.40;;;2.40;80.60;;;;;;2019276;28;20088;-79
2021/03/21 03:07:58;;;;;;;12.68;7.75;;;2.40;80.80;;;;;;2019669;29;20091;-78
2021/03/21 03:09:20;;;;;;;12.23;7.20;;;2.40;80.60;;;;;;2024398;29;20033;-78
2021/03/21 03:10:44;;;;;;;12.50;7.72;;;2.50;80.40;;;;;;2024821;29;20029;-77
2021/03/21 03:12:08;;;;;;;13.70;7.90;;;2.40;80.40;;;;;;2022518;29;20108;-78
2021/03/21 03:13:22;;;;;;;11.57;7.55;;;2.50;80.80;;;;;;2057794;28;20074;-78
2021/03/21 03:14:32;;;;;;;11.77;7.97;;;2.50;80.70;;;;;;2050069;28;20027;-78
2021/03/21 03:15:33;;;;;;;11.18;7.55;;;2.50;80.50;;;;;;2059379;28;20506;-78
2021/03/21 03:16:53;;;;;;;13.35;7.97;;;2.50;80.30;;;;;;2051411;29;20086;-78
2021/03/21 03:18:12;;;;;;;11.13;7.47;;;2.50;79.80;;;;;;2018028;29;20033;-77
2021/03/21 03:19:41;;;;;;;10.70;7.63;;;2.50;79.40;;;;;;2045408;29;20028;-77
2021/03/21 03:20:48;;;;;;;13.20;7.50;;;2.50;79.50;;;;;;2038250;29;20043;-78
2021/03/21 03:22:00;;;;;;;12.75;7.35;;;2.50;79.60;;;;;;2020230;29;20500;-76
2021/03/21 03:23:33;;;;;;;11.65;7.55;;;2.50;79.30;;;;;;2025330;29;20053;-77
2021/03/21 03:24:59;;;;;;;11.10;7.45;;;2.50;79.20;;;;;;2020970;29;20045;-78
2021/03/21 03:26:28;;;;;;;13.25;8.07;;;2.60;79.00;;;;;;2027819;28;20039;-77
2021/03/21 03:27:47;;;;;;;11.10;7.03;;;2.60;78.20;;;;;;2047168;29;20528;-77
2021/03/21 03:29:10;;;;;;;11.88;7.05;;;2.60;78.20;;;;;;2059210;28;20053;-77
2021/03/21 03:30:16;;;;;;;12.13;7.10;;;2.60;78.20;;;;;;2045854;28;20033;-77
2021/03/21 03:31:33;;;;;;;12.13;7.55;;;2.60;78.00;;;;;;2059970;28;20040;-77
2021/03/21 03:32:34;;;;;;;9.68;7.32;;;2.70;77.70;;;;;;2050744;28;20050;-77
2021/03/21 03:33:36;;;;;;;12.25;7.28;;;2.70;77.30;;;;;;2026481;29;20036;-77
2021/03/21 03:34:39;;;;;;;9.68;6.70;;;2.70;77.10;;;;;;2026554;29;20520;-76
2021/03/21 03:35:40;;;;;;;11.27;7.22;;;2.70;77.20;;;;;;2027096;29;20075;-77
2021/03/21 03:36:40;;;;;;;11.27;7.30;;;2.70;76.90;;;;;;2018633;29;20037;-77
2021/03/21 03:37:41;;;;;;;9.95;7.03;;;2.80;76.20;;;;;;2019298;29;20085;-77
2021/03/21 03:38:46;;;;;;;10.82;7.53;;;2.80;76.10;;;;;;2018991;29;20527;-77
2021/03/21 03:39:47;;;;;;;11.20;7.35;;;2.80;76.10;;;;;;2059962;28;20453;-77
2021/03/21 03:40:50;;;;;;;12.25;7.43;;;2.80;76.00;;;;;;2051547;29;20023;-76
2021/03/21 03:42:38;;;;;;;11.90;7.60;;;2.80;75.90;;;;;;2049572;28;20031;-76
2021/03/21 03:44:03;;;;;;;11.82;7.80;;;2.80;75.70;;;;;;2038996;29;20042;-78
2021/03/21 03:45:10;;;;;;;10.85;7.38;;;2.80;76.40;;;;;;2042248;29;20067;-78
2021/03/21 03:46:19;;;;;;;10.30;7.43;;;2.80;76.90;;;;;;2041235;29;20082;-77
2021/03/21 03:47:28;;;;;;;9.85;7.00;;;2.70;77.30;;;;;;2041088;29;20028;-77
2021/03/21 03:48:47;;;;;;;9.48;6.78;;;2.70;77.60;;;;;;2040411;29;20575;-77
2021/03/21 03:50:06;;;;;;;11.20;7.40;;;2.80;77.70;;;;;;2017748;29;20077;-78
2021/03/21 03:51:14;;;;;;;10.60;7.22;;;2.80;77.40;;;;;;2024636;29;20032;-77
2021/03/21 03:52:32;;;;;;;11.45;7.30;;;2.70;77.10;;;;;;2024996;28;20024;-78
2021/03/21 03:53:44;;;;;;;8.93;7.03;;;2.80;77.00;;;;;;2022591;29;20115;-78
2021/03/21 03:54:50;;;;;;;10.00;7.00;;;2.80;76.80;;;;;;2016649;29;20025;-78
2021/03/21 03:55:55;;;;;;;10.30;6.90;;;2.80;77.00;;;;;;2050346;28;20038;-77
2021/03/21 03:57:20;;;;;;;12.88;7.47;;;2.70;77.30;;;;;;2058153;28;20402;-77
2021/03/21 03:58:43;;;;;;;10.73;7.32;;;2.80;77.30;;;;;;2019052;29;20076;-77
2021/03/21 04:00:00;;;;;;;11.52;7.40;;;2.80;77.70;;;;;;2018111;29;20024;-77
2021/03/21 04:01:13;;;;;;;12.18;7.70;;;2.80;77.50;;;;;;2017657;29;20049;-78
2021/03/21 04:02:19;;;;;;;11.15;7.45;;;2.80;77.90;;;;;;2018353;29;20026;-78
2021/03/21 04:03:45;;;;;;;12.68;7.57;;;2.80;78.30;;;;;;2024722;29;20486;-77
2021/03/21 04:05:31;;;;;;;10.98;7.18;;;2.80;78.20;;;;;;2021659;29;20037;-77
2021/03/21 04:06:58;;;;;;;11.60;7.40;;;2.80;78.70;;;;;;2040896;29;20051;-77
2021/03/21 04:08:08;;;;;;;11.10;7.03;;;2.80;78.80;;;;;;2041152;29;20107;-77
2021/03/21 04:09:30;;;;;;;11.27;7.22;;;2.80;78.80;;;;;;2039702;29;20067;-76
2021/03/21 04:10:39;;;;;;;14.27;8.13;;;2.80;78.80;;;;;;2042923;29;20111;-78
2021/03/21 04:11:48;;;;;;;11.98;7.93;;;2.80;78.90;;;;;;2040416;28;20424;-77
2021/03/21 04:13:10;;;;;;;12.80;8.00;;;2.80;78.40;;;;;;2016786;29;20033;-78
2021/03/21 04:14:26;;;;;;;12.23;7.95;;;2.80;78.60;;;;;;2017297;29;20072;-77
2021/03/21 04:15:31;;;;;;;14.07;8.15;;;2.80;78.50;;;;;;2016837;29;20033;-78
2021/03/21 04:16:41;;;;;;;11.77;7.75;;;2.80;79.30;;;;;;2017598;29;20029;-78
2021/03/21 04:18:09;;;;;;;12.88;8.25;;;2.80;79.60;;;;;;2018098;29;20044;-78
2021/03/21 04:19:13;;;;;;;12.32;8.18;;;2.80;80.30;;;;;;2018699;29;20021;-77
2021/03/21 04:20:22;;;;;;;12.80;8.43;;;2.80;80.10;;;;;;2019327;29;20064;-77
2021/03/21 04:21:29;;;;;;;12.65;8.32;;;2.80;80.20;;;;;;2017945;29;20365;-78
2021/03/21 04:22:36;;;;;;;12.45;8.20;;;2.80;80.10;;;;;;2019339;29;20075;-78
2021/03/21 04:23:45;;;;;;;13.35;8.32;;;2.90;80.40;;;;;;2024466;29;20438;-77
2021/03/21 04:24:51;;;;;;;12.32;8.00;;;2.90;80.60;;;;;;2018607;29;20029;-77
2021/03/21 04:25:58;;;;;;;12.27;8.27;;;2.90;81.00;;;;;;2018006;29;20025;-77
2021/03/21 04:27:08;;;;;;;12.82;8.70;;;2.90;80.60;;;;;;2049723;29;20038;-77
2021/03/21 04:28:13;;;;;;;;;;;2.90;80.30;;;;;;2045258;29;20035;-77
2021/03/21 04:29:26;;;;;;;12.80;8.48;;;2.90;80.30;;;;;;2017716;29;19908;-77
2021/03/21 04:30:56;;;;;;;12.27;8.23;;;2.90;79.70;;;;;;2017662;29;20080;-77
2021/03/21 04:32:01;;;;;;;13.20;8.40;;;2.90;79.30;;;;;;2026719;29;20043;-78
2021/03/21 04:33:04;;;;;;;11.52;8.70;;;2.90;80.20;;;;;;2024051;29;20542;-77
2021/03/21 04:34:06;;;;;;;13.13;8.10;;;2.90;80.20;;;;;;2057896;28;20035;-77
2021/03/21 04:35:20;;;;;;;13.70;8.45;;;2.90;80.50;;;;;;2049377;29;20027;-77
2021/03/21 04:36:27;;;;;;;13.50;8.70;;;2.90;80.00;;;;;;2018589;28;20029;-77
2021/03/21 04:37:29;;;;;;;12.48;8.40;;;2.90;80.60;;;;;;2017124;29;20025;-77
2021/03/21 04:38:41;;;;;;;12.23;8.60;;;2.90;80.60;;;;;;2016309;29;20047;-77
2021/03/21 04:39:43;;;;;;;12.50;8.50;;;3.00;80.40;;;;;;2057049;28;20037;-77
2021/03/21 04:40:45;;;;;;;12.98;8.70;;;3.00;80.70;;;;;;2048055;29;20372;-77
2021/03/21 04:42:03;;;;;;;13.35;8.50;;;3.00;80.70;;;;;;2016466;29;20192;-77
2021/03/21 04:43:19;;;;;;;14.40;8.93;;;3.00;79.80;;;;;;2017848;29;20456;-77
2021/03/21 04:44:34;;;;;;;12.68;8.68;;;3.00;79.50;;;;;;2017644;29;20032;-78
2021/03/21 04:45:44;;;;;;;15.90;10.02;;;3.00;80.00;;;;;;2017857;29;20021;-77
2021/03/21 04:47:00;;;;;;;13.63;9.45;;;3.00;81.10;;;;;;2018285;29;20510;-77
2021/03/21 04:48:04;;;;;;;13.85;8.68;;;3.00;81.30;;;;;;2017574;29;20029;-78
2021/03/21 04:49:05;;;;;;;13.88;9.30;;;3.00;81.20;;;;;;2057877;28;20057;-78
2021/03/21 04:50:06;;;;;;;14.35;9.20;;;3.00;81.60;;;;;;2057930;28;20023;-79
2021/03/21 04:51:27;;;;;;;15.02;8.73;;;3.00;82.00;;;;;;2018193;29;20816;-78
2021/03/21 04:53:05;;;;;;;13.63;9.00;;;3.00;81.80;;;;;;2057544;28;20031;-79
2021/03/21 04:54:25;;;;;;;12.82;8.63;;;3.00;81.50;;;;;;2033805;28;20029;-78
2021/03/21 04:55:32;;;;;;;15.07;8.60;;;3.00;81.50;;;;;;2018032;29;20367;-78
2021/03/21 04:56:53;;;;;;;12.00;8.57;;;3.00;81.50;;;;;;2057061;28;20087;-77
2021/03/21 04:58:00;;;;;;;13.82;8.48;;;3.00;82.20;;;;;;2045857;28;20090;-79
2021/03/21 04:59:29;;;;;;;12.68;8.60;;;3.00;82.40;;;;;;2016517;29;20037;-78
2021/03/21 05:00:35;;;;;;;17.10;8.82;;;3.00;82.20;;;;;;2028396;29;20135;-78
2021/03/21 05:02:13;;;;;;;13.00;8.75;;;3.00;82.80;;;;;;2023626;29;20475;-79
2021/03/21 05:03:29;;;;;;;15.20;8.98;;;3.10;82.90;;;;;;2039527;28;20043;-79
2021/03/21 05:04:40;;;;;;;12.98;8.65;;;3.00;82.00;;;;;;2017331;29;20060;-78
2021/03/21 05:05:45;;;;;;;13.73;9.13;;;3.10;83.10;;;;;;2017269;29;20121;-79
2021/03/21 05:06:59;;;;;;;15.10;9.45;;;3.00;82.30;;;;;;2016575;29;20036;-77
2021/03/21 05:08:08;;;;;;;14.27;9.40;;;3.00;82.70;;;;;;2019483;28;20025;-77
2021/03/21 05:09:25;;;;;;;13.95;9.63;;;3.00;82.80;;;;;;2023664;29;20035;-78
2021/03/21 05:10:33;;;;;;;14.95;9.57;;;3.00;83.10;;;;;;2024483;29;20028;-78
2021/03/21 05:11:41;;;;;;;15.27;9.50;;;3.00;83.70;;;;;;2016988;29;20037;-78
2021/03/21 05:12:47;;;;;;;14.32;9.30;;;3.00;84.10;;;;;;2009920;28;20037;-77
2021/03/21 05:13:59;;;;;;;15.43;9.23;;;3.00;84.60;;;;;;2016942;29;20037;-77
2021/03/21 05:15:10;;;;;;;14.77;10.13;;;3.00;85.20;;;;;;2017467;29;20025;-78
2021/03/21 05:16:39;;;;;;;15.57;10.13;;;3.00;85.00;;;;;;2016646;29;20040;-78
2021/03/21 05:18:14;;;;;;;16.73;9.93;;;3.00;85.20;;;;;;2016752;29;20095;-78
2021/03/21 05:19:45;;;;;;;14.90;9.90;;;3.00;86.10;;;;;;2016903;29;20120;-78
2021/03/21 05:20:54;;;;;;;16.90;10.50;;;2.90;87.20;;;;;;2024252;29;20044;-77
2021/03/21 05:22:02;;;;;;;16.92;10.93;;;2.90;88.30;;;;;;2024817;29;20068;-78
2021/03/21 05:23:15;;;;;;;15.75;10.23;;;2.90;88.20;;;;;;2016276;29;20025;-78
2021/03/21 05:24:23;;;;;;;17.65;10.73;;;2.90;88.50;;;;;;2050365;28;20099;-78
2021/03/21 05:25:30;;;;;;;17.17;10.75;;;2.90;89.60;;;;;;2052599;28;20077;-77
2021/03/21 05:26:41;;;;;;;18.90;11.40;;;2.90;89.60;;;;;;2056852;28;20031;-78
2021/03/21 05:27:43;;;;;;;18.42;11.18;;;2.90;89.40;;;;;;2050856;28;20031;-78
2021/03/21 05:28:55;;;;;;;18.20;11.38;;;2.90;90.10;;;;;;2016313;29;20025;-78
2021/03/21 05:30:15;;;;;;;19.42;11.80;;;2.90;90.40;;;;;;2017845;29;20495;-78
2021/03/21 05:31:16;;;;;;;18.83;11.80;;;2.90;90.40;;;;;;2009469;29;20077;-78
2021/03/21 05:32:19;;;;;;;19.52;12.10;;;2.90;90.40;;;;;;2001603;29;20030;-78
2021/03/21 05:33:19;;;;;;;16.90;11.80;;;2.90;90.30;;;;;;2017258;28;20029;-78
2021/03/21 05:34:20;;;;;;;18.02;11.85;;;2.90;90.40;;;;;;2018463;29;20091;-78
2021/03/21 05:35:24;;;;;;;18.55;12.07;;;2.90;90.40;;;;;;2017218;29;20033;-78
2021/03/21 05:36:53;;;;;;;16.55;11.75;;;2.90;90.70;;;;;;2056648;28;20039;-78
2021/03/21 05:38:23;;;;;;;19.27;12.15;;;2.90;90.60;;;;;;2039753;28;20175;-77
2021/03/21 05:39:52;;;;;;;19.85;12.00;;;2.90;90.20;;;;;;2018091;29;20350;-78
2021/03/21 05:41:11;;;;;;;20.00;12.35;;;2.90;90.40;;;;;;2048571;29;20031;-77
2021/03/21 05:42:31;;;;;;;18.45;11.93;;;2.90;90.20;;;;;;2035307;29;20027;-77
2021/03/21 05:44:06;;;;;;;19.98;12.23;;;2.90;90.30;;;;;;2017325;29;20535;-78
2021/03/21 05:45:45;;;;;;;18.25;11.90;;;2.90;90.50;;;;;;2016829;29;20056;-78
2021/03/21 05:47:10;;;;;;;20.52;12.55;;;3.00;90.40;;;;;;2056112;28;20114;-77
2021/03/21 05:48:58;;;;;;;19.77;12.52;;;3.00;90.50;;;;;;2016370;29;20037;-78
2021/03/21 05:50:49;;;;;;;21.05;12.52;;;3.00;90.50;;;;;;2056335;28;20046;-78
2021/03/21 05:52:14;;;;;;;18.50;12.30;;;3.00;90.30;;;;;;2026000;29;20037;-78
2021/03/21 05:53:35;;;;;;;20.25;12.63;;;3.00;90.20;;;;;;2011742;29;20029;-78
2021/03/21 05:55:10;;;;;;;19.58;12.77;;;3.10;89.70;;;;;;2019155;29;20523;-78
2021/03/21 05:56:20;;;;;;;21.90;12.73;;;3.10;89.30;;;;;;2021131;29;20033;-78
2021/03/21 05:57:46;;;;;;;21.08;12.60;;;3.10;89.90;;;;;;2017310;29;20021;-78
2021/03/21 05:59:08;;;;;;;20.23;12.70;;;3.10;90.10;;;;;;2015718;29;20877;-78
2021/03/21 06:00:12;;;;;;;20.85;12.80;;;3.10;90.20;;;;;;2016409;29;20105;-78
2021/03/21 06:01:43;;;;;;;20.23;13.23;;;3.20;90.20;;;;;;2016487;29;20084;-77
2021/03/21 06:03:05;;;;;;;19.95;13.23;;;3.10;90.20;;;;;;2057003;28;20035;-78
2021/03/21 06:04:33;;;;;;;22.08;13.15;;;3.10;90.30;;;;;;2037987;29;20041;-78
2021/03/21 06:06:15;;;;;;;20.50;13.32;;;3.10;90.50;;;;;;2016724;29;20401;-78
2021/03/21 06:07:46;;;;;;;20.38;12.80;;;3.10;90.70;;;;;;2024305;29;20156;-78